Time;durP1;ratioP1;P1;durP2;ratioP2;P2;SDS_P1;SDS_P2;PMS_P1;PMS_P2;Temp;Humidity;BMP_temperature;BMP_pressure;BME280_temperature;BME280_humidity;BME280_pressure;Samples;Min_cycle;Max_cycle;Signal;HPM_P1;HPM_P2
2022/09/01 00:02:20;;;;;;;3.92;1.60;;;15.60;99.90;;;;;;5097823;28;20044;-50
2022/09/01 00:04:46;;;;;;;4.15;1.45;;;15.60;99.90;;;;;;5096113;28;20083;-49
2022/09/01 00:07:12;;;;;;;7.30;1.60;;;15.50;99.90;;;;;;5098040;28;20071;-49
2022/09/01 00:09:38;;;;;;;4.13;1.30;;;15.50;99.90;;;;;;5097065;28;20051;-52
2022/09/01 00:12:07;;;;;;;5.47;1.70;;;15.50;99.90;;;;;;5098106;28;20115;-51
2022/09/01 00:14:37;;;;;;;6.53;1.67;;;15.50;99.90;;;;;;5096010;28;20080;-52
2022/09/01 00:17:06;;;;;;;5.45;2.22;;;15.50;99.90;;;;;;5090509;28;20064;-50
2022/09/01 00:19:34;;;;;;;5.72;1.92;;;15.50;99.90;;;;;;5077156;28;20066;-51
2022/09/01 00:22:01;;;;;;;4.43;1.70;;;15.50;99.90;;;;;;5077032;28;20048;-50
2022/09/01 00:24:28;;;;;;;5.85;3.08;;;15.40;99.90;;;;;;5076211;28;20091;-49
2022/09/01 00:26:55;;;;;;;6.15;1.92;;;15.40;99.90;;;;;;5075572;28;20037;-51
2022/09/01 00:29:21;;;;;;;5.55;1.75;;;15.40;99.90;;;;;;5080759;28;20083;-50
2022/09/01 00:31:47;;;;;;;4.65;1.58;;;15.40;99.90;;;;;;5080756;28;20507;-49
2022/09/01 00:34:14;;;;;;;4.35;1.92;;;15.40;99.90;;;;;;5081499;28;20040;-51
2022/09/01 00:36:40;;;;;;;4.90;2.03;;;15.40;99.90;;;;;;5081357;28;20049;-52
2022/09/01 00:39:06;;;;;;;4.60;1.50;;;15.40;99.90;;;;;;5096495;28;20047;-51
2022/09/01 00:41:37;;;;;;;4.65;1.70;;;15.40;99.90;;;;;;5100039;28;20083;-50
2022/09/01 00:44:05;;;;;;;5.18;1.73;;;15.40;99.90;;;;;;5100442;28;20048;-48
2022/09/01 00:46:38;;;;;;;6.32;1.88;;;15.40;99.90;;;;;;5101696;28;20054;-50
2022/09/01 00:49:25;;;;;;;3.67;1.60;;;15.40;99.90;;;;;;5100993;28;20046;-51
2022/09/01 00:51:54;;;;;;;7.40;2.13;;;15.40;99.90;;;;;;5100875;28;20044;-51
2022/09/01 00:54:29;;;;;;;4.88;1.70;;;15.40;99.90;;;;;;5101118;28;20040;-50
2022/09/01 00:56:55;;;;;;;5.03;1.90;;;15.40;99.90;;;;;;5100302;28;20128;-52
2022/09/01 00:59:23;;;;;;;5.75;1.77;;;15.40;99.90;;;;;;5101462;28;20059;-51
2022/09/01 01:01:49;;;;;;;3.92;1.50;;;15.40;99.90;;;;;;5100612;28;20099;-51
2022/09/01 01:04:15;;;;;;;7.15;2.15;;;15.40;99.90;;;;;;5100999;28;20041;-48
2022/09/01 01:06:49;;;;;;;4.97;1.75;;;15.40;99.90;;;;;;5101015;28;20393;-52
2022/09/01 01:09:19;;;;;;;4.72;1.80;;;15.30;99.90;;;;;;5100034;28;20063;-52
2022/09/01 01:11:46;;;;;;;5.45;1.60;;;15.50;99.90;;;;;;5100720;28;20508;-49
2022/09/01 01:14:14;;;;;;;8.00;2.05;;;15.30;99.90;;;;;;5100190;28;20076;-51
2022/09/01 01:16:50;;;;;;;5.43;1.60;;;15.30;99.90;;;;;;5096839;28;20512;-53
2022/09/01 01:25:07;;;;;;;4.25;1.80;;;15.30;99.90;;;;;;5080532;28;20063;-52
2022/09/01 01:27:34;;;;;;;6.50;1.55;;;15.30;99.90;;;;;;5079907;28;20053;-51
2022/09/01 01:30:06;;;;;;;4.85;1.90;;;15.30;99.90;;;;;;5080189;28;20044;-52
2022/09/01 01:32:32;;;;;;;4.90;1.80;;;15.30;99.90;;;;;;5080202;28;20124;-51
2022/09/01 01:35:02;;;;;;;5.97;2.03;;;15.30;99.90;;;;;;5079669;28;20045;-48
2022/09/01 01:37:28;;;;;;;4.65;1.65;;;15.30;99.90;;;;;;5082643;28;20047;-50
2022/09/01 01:39:54;;;;;;;4.72;1.65;;;15.40;99.90;;;;;;5099160;28;20068;-48
2022/09/01 01:42:19;;;;;;;5.40;2.55;;;15.30;99.90;;;;;;5100274;28;20080;-49
2022/09/01 01:44:46;;;;;;;4.15;1.75;;;15.30;99.90;;;;;;5099887;28;20044;-50
2022/09/01 01:47:12;;;;;;;5.10;2.33;;;15.30;99.90;;;;;;5099836;28;20043;-51
2022/09/01 01:49:42;;;;;;;4.50;1.83;;;15.40;99.90;;;;;;5100250;28;20040;-51
2022/09/01 01:52:15;;;;;;;5.00;1.70;;;15.40;99.90;;;;;;5099630;28;20051;-52
2022/09/01 01:54:41;;;;;;;4.18;1.50;;;15.20;99.90;;;;;;5100121;28;20040;-50
2022/09/01 01:57:07;;;;;;;4.28;1.75;;;15.30;99.90;;;;;;5098990;28;20074;-51
2022/09/01 01:59:33;;;;;;;4.10;1.92;;;15.30;99.90;;;;;;5100161;28;20052;-51
2022/09/01 02:02:03;;;;;;;4.35;1.77;;;15.30;99.90;;;;;;5099627;28;20052;-50
2022/09/01 02:04:32;;;;;;;6.38;1.90;;;15.30;99.90;;;;;;5099514;28;20069;-49
2022/09/01 02:06:59;;;;;;;4.80;2.03;;;15.40;99.90;;;;;;5099888;28;20036;-51
2022/09/01 02:09:24;;;;;;;4.55;1.60;;;15.30;99.90;;;;;;5098652;28;20071;-56
2022/09/01 02:11:56;;;;;;;4.97;1.83;;;15.30;99.90;;;;;;5099878;28;20051;-51
2022/09/01 02:14:22;;;;;;;3.70;1.70;;;15.40;99.90;;;;;;5099172;28;20052;-49
2022/09/01 02:16:48;;;;;;;6.57;1.90;;;15.30;99.90;;;;;;5094702;28;20044;-49
2022/09/01 02:19:18;;;;;;;3.90;1.60;;;15.40;99.90;;;;;;5079045;28;20037;-51
2022/09/01 02:21:47;;;;;;;3.90;1.52;;;15.30;99.90;;;;;;5078778;28;20048;-51
2022/09/01 02:24:14;;;;;;;3.70;1.50;;;15.30;99.90;;;;;;5079235;28;20044;-50
2022/09/01 02:26:46;;;;;;;5.68;1.65;;;15.40;99.90;;;;;;5078607;28;20123;-50
2022/09/01 02:29:19;;;;;;;4.35;1.63;;;15.40;99.90;;;;;;5079236;28;20048;-50
2022/09/01 02:31:48;;;;;;;6.32;1.60;;;15.30;99.90;;;;;;5078704;28;20036;-49
2022/09/01 02:34:15;;;;;;;4.05;1.50;;;15.40;99.90;;;;;;5078906;28;20630;-49
2022/09/01 02:36:46;;;;;;;4.00;1.60;;;15.40;99.90;;;;;;5079029;28;20094;-51
2022/09/01 02:39:17;;;;;;;4.50;1.80;;;15.40;99.90;;;;;;5094875;28;20056;-49
2022/09/01 02:41:44;;;;;;;4.07;1.67;;;15.50;99.90;;;;;;5099167;28;20051;-52
2022/09/01 02:44:13;;;;;;;5.25;1.90;;;15.50;99.90;;;;;;5098426;28;20036;-49
2022/09/01 02:46:41;;;;;;;3.53;1.58;;;15.40;99.90;;;;;;5099249;28;20048;-49
2022/09/01 02:49:18;;;;;;;5.32;1.65;;;15.40;99.90;;;;;;5098618;28;20147;-49
2022/09/01 02:51:47;;;;;;;2.47;1.20;;;15.40;99.90;;;;;;5097928;28;20101;-51
2022/09/01 02:54:17;;;;;;;4.80;1.80;;;15.30;99.90;;;;;;5099003;28;20115;-50
2022/09/01 02:56:46;;;;;;;4.82;1.67;;;15.30;99.90;;;;;;5098006;28;20067;-49
2022/09/01 02:59:14;;;;;;;4.70;1.70;;;15.30;99.90;;;;;;5099067;28;20075;-49
2022/09/01 03:01:41;;;;;;;5.25;1.90;;;15.30;99.90;;;;;;5098100;28;20059;-50
2022/09/01 03:04:08;;;;;;;4.35;1.80;;;15.30;99.90;;;;;;5098621;28;20484;-49
2022/09/01 03:06:36;;;;;;;4.45;1.90;;;15.30;99.90;;;;;;5097443;28;20439;-50
2022/09/01 03:09:07;;;;;;;5.97;1.40;;;15.30;99.90;;;;;;5097876;28;20051;-52
2022/09/01 03:11:35;;;;;;;4.75;1.48;;;15.30;99.90;;;;;;5098764;28;20566;-49
2022/09/01 03:14:01;;;;;;;4.55;1.50;;;15.30;99.90;;;;;;5097695;28;20101;-51
2022/09/01 03:16:29;;;;;;;4.95;1.80;;;15.20;99.90;;;;;;5095162;28;20043;-52
2022/09/01 03:18:55;;;;;;;4.55;1.60;;;15.30;99.90;;;;;;5077865;28;20124;-52
2022/09/01 03:21:22;;;;;;;3.90;1.83;;;15.30;99.90;;;;;;5078344;28;20048;-50
2022/09/01 03:23:49;;;;;;;3.58;1.67;;;15.30;99.90;;;;;;5078177;28;20052;-51
2022/09/01 03:26:18;;;;;;;3.63;1.60;;;15.30;99.90;;;;;;5077891;28;20045;-49
2022/09/01 03:28:44;;;;;;;5.40;2.00;;;15.20;99.90;;;;;;5078105;28;20032;-48
2022/09/01 03:31:10;;;;;;;4.05;1.70;;;15.30;99.90;;;;;;5077401;28;20504;-50
2022/09/01 03:33:37;;;;;;;4.85;1.70;;;15.30;99.90;;;;;;5078321;28;20040;-49
2022/09/01 03:36:04;;;;;;;3.67;1.60;;;15.20;99.90;;;;;;5077612;28;20040;-51
2022/09/01 03:38:32;;;;;;;4.63;1.73;;;15.30;99.90;;;;;;5089057;28;20040;-51
2022/09/01 03:41:01;;;;;;;4.32;1.65;;;15.30;99.90;;;;;;5097776;28;20076;-49
2022/09/01 03:43:29;;;;;;;5.05;1.92;;;15.20;99.90;;;;;;5097840;28;20159;-51
2022/09/01 03:45:59;;;;;;;4.30;1.73;;;15.30;99.90;;;;;;5096536;28;20044;-51
2022/09/01 03:48:27;;;;;;;4.57;2.13;;;15.30;99.90;;;;;;5097501;28;20093;-50
2022/09/01 03:50:55;;;;;;;5.18;1.90;;;15.20;99.90;;;;;;5096831;28;20047;-49
2022/09/01 03:53:26;;;;;;;5.35;1.83;;;15.20;99.90;;;;;;5097915;28;20492;-50
2022/09/01 03:55:53;;;;;;;5.20;2.30;;;15.20;99.90;;;;;;5097551;28;20051;-51
2022/09/01 03:58:19;;;;;;;5.40;1.73;;;15.20;99.90;;;;;;5097958;28;20047;-53
2022/09/01 04:00:55;;;;;;;3.85;1.70;;;15.20;99.90;;;;;;5097252;28;20036;-50
2022/09/01 04:03:24;;;;;;;4.55;1.80;;;15.10;99.90;;;;;;5101476;28;20043;-51
2022/09/01 04:05:51;;;;;;;3.60;1.65;;;15.10;99.90;;;;;;5101565;28;20051;-49
2022/09/01 04:08:18;;;;;;;3.83;1.80;;;15.10;99.90;;;;;;5102107;28;20042;-50
2022/09/01 04:10:49;;;;;;;3.78;1.77;;;15.00;99.90;;;;;;5101732;28;20051;-49
2022/09/01 04:13:20;;;;;;;5.40;2.10;;;15.00;99.90;;;;;;5101576;28;20059;-52
2022/09/01 04:15:46;;;;;;;4.82;1.77;;;15.00;99.90;;;;;;5102017;28;20398;-52
2022/09/01 04:18:20;;;;;;;5.70;2.28;;;15.00;99.90;;;;;;5084058;28;20077;-51
2022/09/01 04:20:48;;;;;;;4.53;2.00;;;15.00;99.90;;;;;;5081620;28;20028;-52
2022/09/01 04:23:22;;;;;;;5.32;2.17;;;14.90;99.90;;;;;;5081072;28;20041;-52
2022/09/01 04:25:49;;;;;;;4.82;2.42;;;14.90;99.90;;;;;;5081311;28;20055;-50
2022/09/01 04:28:23;;;;;;;4.90;2.08;;;14.80;99.90;;;;;;5081409;28;20040;-52
2022/09/01 04:30:57;;;;;;;5.35;2.00;;;14.80;99.90;;;;;;5080819;28;20047;-51
2022/09/01 04:33:35;;;;;;;4.95;2.40;;;14.80;99.90;;;;;;5081401;28;20074;-50
2022/09/01 04:36:02;;;;;;;5.15;2.25;;;14.70;99.90;;;;;;5079490;28;20052;-51
2022/09/01 04:38:29;;;;;;;5.35;2.10;;;14.70;99.90;;;;;;5091985;28;20036;-50
2022/09/01 04:40:56;;;;;;;4.85;2.33;;;14.70;99.90;;;;;;5101253;28;20052;-50
2022/09/01 04:43:24;;;;;;;4.30;2.08;;;14.60;99.90;;;;;;5100946;28;20115;-50
2022/09/01 04:45:50;;;;;;;5.70;2.95;;;14.60;99.90;;;;;;5101166;28;20048;-49
2022/09/01 04:48:19;;;;;;;5.40;2.42;;;14.60;99.90;;;;;;5099355;28;20107;-51
2022/09/01 04:50:48;;;;;;;5.15;2.22;;;14.60;99.90;;;;;;5101692;28;20040;-51
2022/09/01 04:53:17;;;;;;;5.13;2.33;;;14.50;99.90;;;;;;5101030;28;20044;-50
2022/09/01 04:55:43;;;;;;;6.60;2.58;;;14.50;99.90;;;;;;5101129;28;20048;-53
2022/09/01 04:58:16;;;;;;;5.65;2.25;;;14.50;99.90;;;;;;5100745;28;20048;-50
2022/09/01 05:00:54;;;;;;;6.03;2.63;;;14.50;99.90;;;;;;5100303;28;20044;-49
2022/09/01 05:03:22;;;;;;;5.88;2.83;;;14.50;99.90;;;;;;5101185;28;20039;-51
2022/09/01 05:05:49;;;;;;;5.18;2.65;;;14.50;99.90;;;;;;5100504;28;20076;-52
2022/09/01 05:08:19;;;;;;;5.47;2.70;;;14.50;99.90;;;;;;5101159;28;20051;-50
2022/09/01 05:10:49;;;;;;;6.97;2.53;;;14.50;99.90;;;;;;5100360;28;20056;-52
2022/09/01 05:13:16;;;;;;;5.72;2.90;;;14.50;99.90;;;;;;5099881;28;20099;-49
2022/09/01 05:15:45;;;;;;;7.20;2.70;;;14.40;99.90;;;;;;5100582;28;20040;-52
2022/09/01 05:18:26;;;;;;;13.20;3.50;;;14.40;99.90;;;;;;5079004;28;20052;-51
2022/09/01 05:20:53;;;;;;;5.63;2.35;;;14.50;99.90;;;;;;5077450;28;20057;-52
2022/09/01 05:23:20;;;;;;;6.10;2.70;;;14.50;99.90;;;;;;5076804;28;20067;-51
2022/09/01 05:25:50;;;;;;;6.20;2.60;;;14.60;99.90;;;;;;5076816;28;20048;-53
2022/09/01 05:28:18;;;;;;;6.63;2.75;;;14.50;99.90;;;;;;5076910;28;20159;-53
2022/09/01 05:30:46;;;;;;;5.45;2.83;;;14.50;99.90;;;;;;5074907;28;20044;-52
2022/09/01 05:33:15;;;;;;;5.25;2.65;;;14.50;99.90;;;;;;5077066;28;20103;-53
2022/09/01 05:35:55;;;;;;;6.97;2.45;;;14.50;99.90;;;;;;5075968;28;20048;-52
2022/09/01 05:38:23;;;;;;;5.78;2.28;;;14.60;99.90;;;;;;5086584;28;20213;-53
2022/09/01 05:41:05;;;;;;;5.43;2.22;;;14.60;99.90;;;;;;5095027;28;20047;-52
2022/09/01 05:43:32;;;;;;;5.43;2.38;;;14.70;99.90;;;;;;5096453;28;20059;-53
2022/09/01 05:45:59;;;;;;;4.70;2.53;;;14.70;99.90;;;;;;5096768;28;20040;-54
2022/09/01 05:48:27;;;;;;;6.05;2.65;;;14.70;99.90;;;;;;5096349;28;20044;-52
2022/09/01 05:50:58;;;;;;;4.95;2.70;;;14.70;99.90;;;;;;5097076;28;20105;-51
2022/09/01 05:53:25;;;;;;;5.57;2.15;;;14.60;99.90;;;;;;5095006;28;20044;-52
2022/09/01 05:55:56;;;;;;;7.50;2.38;;;14.60;99.90;;;;;;5095090;28;20048;-51
2022/09/01 05:58:24;;;;;;;5.15;2.75;;;14.70;99.90;;;;;;5096871;28;20481;-52
2022/09/01 06:00:52;;;;;;;5.63;2.75;;;14.80;99.90;;;;;;5095671;28;20044;-54
2022/09/01 06:03:21;;;;;;;5.38;2.58;;;14.80;99.90;;;;;;5095325;28;20596;-53
2022/09/01 06:05:51;;;;;;;5.50;2.90;;;14.90;99.90;;;;;;5094133;28;20495;-54
2022/09/01 06:08:20;;;;;;;5.50;2.50;;;15.00;99.90;;;;;;5096734;28;20048;-53
2022/09/01 06:10:47;;;;;;;6.32;2.63;;;15.10;99.90;;;;;;5096041;28;20268;-52
2022/09/01 06:13:14;;;;;;;6.30;2.53;;;15.10;99.90;;;;;;5094237;28;20419;-53
2022/09/01 06:15:41;;;;;;;5.05;2.35;;;15.20;99.90;;;;;;5096124;28;20055;-52
2022/09/01 06:18:10;;;;;;;5.03;2.50;;;15.30;99.90;;;;;;5077397;28;20056;-53
2022/09/01 06:20:42;;;;;;;5.40;2.70;;;15.20;99.90;;;;;;5076320;28;20032;-53
2022/09/01 06:23:08;;;;;;;;;;;15.30;99.90;;;;;;5076181;28;20055;-50
2022/09/01 06:25:38;;;;;;;7.80;2.50;;;15.30;99.90;;;;;;5074756;28;19928;-54
2022/09/01 06:28:04;;;;;;;6.80;2.95;;;15.30;99.90;;;;;;5075523;28;20052;-53
2022/09/01 06:30:31;;;;;;;5.95;2.53;;;15.30;99.90;;;;;;5075256;28;20067;-54
2022/09/01 06:33:00;;;;;;;6.03;2.83;;;15.40;99.90;;;;;;5087862;28;20048;-53
2022/09/01 06:35:28;;;;;;;6.50;2.55;;;15.40;99.90;;;;;;5097016;28;20087;-52
2022/09/01 06:37:55;;;;;;;6.05;2.85;;;15.60;99.90;;;;;;5098130;28;20076;-53
2022/09/01 06:40:24;;;;;;;5.70;2.53;;;15.60;99.90;;;;;;5096701;28;20051;-53
2022/09/01 06:42:51;;;;;;;5.47;2.53;;;15.70;99.90;;;;;;5098754;28;20052;-53
2022/09/01 06:45:22;;;;;;;5.68;2.95;;;15.80;99.90;;;;;;5098942;28;20048;-52
2022/09/01 06:47:49;;;;;;;4.78;2.88;;;15.90;99.90;;;;;;5098405;28;20407;-53
2022/09/01 06:50:20;;;;;;;6.60;2.75;;;16.00;99.90;;;;;;5098986;28;20078;-52
2022/09/01 06:52:48;;;;;;;5.32;2.63;;;16.20;99.90;;;;;;5098229;28;20040;-54
2022/09/01 06:55:15;;;;;;;7.38;2.72;;;16.40;99.90;;;;;;5098720;28;20511;-53
2022/09/01 06:57:47;;;;;;;7.10;2.50;;;16.60;99.90;;;;;;5098642;28;20036;-53
2022/09/01 07:00:18;;;;;;;5.47;2.15;;;16.70;99.90;;;;;;5098132;28;20068;-53
2022/09/01 07:02:52;;;;;;;5.22;2.17;;;16.80;99.90;;;;;;5098531;28;20102;-53
2022/09/01 07:05:20;;;;;;;4.78;2.10;;;16.80;99.90;;;;;;5097830;28;20044;-53
2022/09/01 07:07:54;;;;;;;6.22;2.05;;;16.80;99.90;;;;;;5098681;28;20040;-53
2022/09/01 07:10:25;;;;;;;5.28;2.70;;;16.70;99.90;;;;;;5098172;28;20077;-53
2022/09/01 07:12:54;;;;;;;6.13;2.40;;;16.60;99.90;;;;;;5098526;28;20050;-54
2022/09/01 07:15:21;;;;;;;6.80;2.50;;;16.50;99.90;;;;;;5096977;28;20082;-53
2022/09/01 07:17:51;;;;;;;5.10;2.60;;;16.50;99.90;;;;;;5081068;28;20044;-53
2022/09/01 07:20:22;;;;;;;5.90;2.38;;;16.40;99.90;;;;;;5073874;28;20041;-53
2022/09/01 07:22:49;;;;;;;5.70;2.45;;;16.60;99.90;;;;;;5074164;28;20057;-52
2022/09/01 07:25:16;;;;;;;4.88;2.40;;;16.70;99.90;;;;;;5075167;28;20053;-50
2022/09/01 07:27:49;;;;;;;5.38;2.40;;;16.80;99.90;;;;;;5074520;28;20048;-52
2022/09/01 07:30:17;;;;;;;7.63;2.47;;;17.00;99.90;;;;;;5074121;28;20040;-53
2022/09/01 07:32:44;;;;;;;5.55;2.38;;;17.30;99.90;;;;;;5074851;28;20101;-53
2022/09/01 07:35:11;;;;;;;6.65;2.63;;;17.30;99.90;;;;;;5074039;28;20056;-54
2022/09/01 07:37:37;;;;;;;5.88;2.30;;;17.20;99.90;;;;;;5078118;28;20036;-53
2022/09/01 07:40:05;;;;;;;6.65;2.50;;;17.30;99.90;;;;;;5093854;28;20097;-53
2022/09/01 07:42:32;;;;;;;7.75;2.30;;;17.30;99.90;;;;;;5094979;28;20076;-53
2022/09/01 07:44:58;;;;;;;5.45;2.28;;;17.20;99.90;;;;;;5094862;28;20135;-52
2022/09/01 07:47:28;;;;;;;5.45;1.95;;;17.20;99.90;;;;;;5094292;28;20055;-51
2022/09/01 07:49:54;;;;;;;4.93;2.20;;;17.20;99.90;;;;;;5094664;28;20047;-52
2022/09/01 07:52:20;;;;;;;6.03;2.13;;;17.10;99.90;;;;;;5093594;28;20044;-50
2022/09/01 07:54:46;;;;;;;6.28;2.47;;;17.20;99.90;;;;;;5095151;28;20485;-52
2022/09/01 07:57:12;;;;;;;4.47;2.00;;;17.20;99.90;;;;;;5093753;28;20052;-51
2022/09/01 07:59:38;;;;;;;4.55;1.85;;;17.30;99.90;;;;;;5094848;28;20055;-52
2022/09/01 08:02:04;;;;;;;4.88;2.03;;;17.40;99.90;;;;;;5094649;28;20052;-51
2022/09/01 08:04:32;;;;;;;8.15;2.45;;;17.40;99.90;;;;;;5092813;28;20044;-51
2022/09/01 08:06:59;;;;;;;5.10;2.30;;;17.50;99.90;;;;;;5094576;28;20047;-52
2022/09/01 08:09:24;;;;;;;5.30;2.15;;;17.60;99.90;;;;;;5093714;28;20066;-52
2022/09/01 08:11:51;;;;;;;6.63;2.33;;;17.70;99.90;;;;;;5094647;28;20044;-53
2022/09/01 08:14:16;;;;;;;5.78;2.78;;;17.90;99.90;;;;;;5094083;28;20056;-52
2022/09/01 08:16:42;;;;;;;6.53;2.00;;;18.00;99.90;;;;;;5089978;28;20048;-53
2022/09/01 08:19:08;;;;;;;6.70;2.50;;;18.20;99.90;;;;;;5074372;28;20029;-52
2022/09/01 08:21:34;;;;;;;6.10;2.50;;;18.30;99.90;;;;;;5072330;28;20036;-52
2022/09/01 08:23:59;;;;;;;5.65;2.60;;;18.40;99.90;;;;;;5074315;28;20059;-53
2022/09/01 08:26:26;;;;;;;6.93;2.88;;;18.60;99.90;;;;;;5073372;28;20048;-53
2022/09/01 08:28:53;;;;;;;5.53;2.90;;;18.80;99.90;;;;;;5073930;28;20037;-53
2022/09/01 08:31:21;;;;;;;5.68;2.03;;;18.90;99.90;;;;;;5073709;28;20044;-53
2022/09/01 08:33:48;;;;;;;4.65;2.08;;;19.00;99.90;;;;;;5074480;28;20049;-52
2022/09/01 08:36:15;;;;;;;5.90;2.17;;;19.10;99.90;;;;;;5074159;28;20037;-53
2022/09/01 08:38:41;;;;;;;5.50;2.33;;;19.10;99.90;;;;;;5084646;28;20052;-52
2022/09/01 08:41:27;;;;;;;5.82;2.10;;;19.00;99.90;;;;;;5093647;28;20054;-53
2022/09/01 08:44:13;;;;;;;6.72;2.83;;;19.10;99.90;;;;;;5093517;28;20048;-53
2022/09/01 08:46:41;;;;;;;5.68;2.42;;;19.00;99.90;;;;;;5094383;28;20044;-52
2022/09/01 08:49:17;;;;;;;6.07;2.30;;;19.00;99.90;;;;;;5095280;28;20055;-52
2022/09/01 08:52:01;;;;;;;5.22;2.40;;;18.80;99.90;;;;;;5098263;28;20044;-51
2022/09/01 08:54:41;;;;;;;4.35;1.95;;;18.60;99.90;;;;;;5100217;28;20044;-53
2022/09/01 08:57:31;;;;;;;6.03;2.20;;;18.60;99.90;;;;;;5099657;28;20096;-54
2022/09/01 08:59:57;;;;;;;8.57;2.65;;;18.60;99.90;;;;;;5097763;28;20055;-52
2022/09/01 09:02:41;;;;;;;5.13;2.30;;;18.60;99.90;;;;;;5100825;28;20050;-53
2022/09/01 09:05:09;;;;;;;6.15;2.63;;;18.80;99.90;;;;;;5093068;28;20423;-54
2022/09/01 09:08:04;;;;;;;5.40;2.25;;;19.00;99.90;;;;;;5083971;28;20037;-53
2022/09/01 09:10:48;;;;;;;5.35;2.28;;;19.20;99.90;;;;;;5075261;28;20037;-52
2022/09/01 09:13:15;;;;;;;6.00;2.28;;;19.40;99.90;;;;;;5079791;28;20504;-53
2022/09/01 09:15:58;;;;;;;4.30;2.00;;;19.50;99.90;;;;;;5080177;28;20052;-53
2022/09/01 09:18:41;;;;;;;5.53;2.10;;;19.60;99.90;;;;;;5096685;28;20055;-54
2022/09/01 09:21:19;;;;;;;6.32;2.53;;;19.60;99.90;;;;;;5100101;28;20047;-52
2022/09/01 09:23:49;;;;;;;5.85;2.72;;;19.60;99.90;;;;;;5100210;28;20067;-53
2022/09/01 09:26:19;;;;;;;6.03;2.20;;;19.80;99.90;;;;;;5099536;28;20048;-54
2022/09/01 09:28:48;;;;;;;7.05;2.40;;;19.90;99.90;;;;;;5100427;28;20101;-53
2022/09/01 09:31:32;;;;;;;7.13;2.55;;;19.90;99.90;;;;;;5099522;28;20035;-50
2022/09/01 09:33:59;;;;;;;8.25;2.28;;;20.00;99.90;;;;;;5082028;28;20048;-53
2022/09/01 09:36:34;;;;;;;4.53;1.63;;;20.00;99.90;;;;;;5100334;28;20438;-53
2022/09/01 09:39:15;;;;;;;5.60;2.05;;;20.10;99.90;;;;;;5097643;28;20073;-54
2022/09/01 09:41:42;;;;;;;4.80;2.40;;;20.20;99.90;;;;;;5098903;28;20051;-53
2022/09/01 09:44:28;;;;;;;4.03;1.67;;;20.10;99.90;;;;;;5099490;28;20074;-53
2022/09/01 09:46:56;;;;;;;6.57;1.55;;;20.20;99.90;;;;;;5099768;28;20096;-53
2022/09/01 09:49:30;;;;;;;6.07;1.60;;;20.30;99.90;;;;;;5100052;28;20253;-53
2022/09/01 09:52:11;;;;;;;2.63;1.17;;;20.40;99.90;;;;;;5099135;28;20041;-54
2022/09/01 09:54:58;;;;;;;3.70;1.50;;;20.40;99.90;;;;;;5099873;28;20048;-52
2022/09/01 09:57:24;;;;;;;4.25;1.40;;;20.50;99.90;;;;;;5098941;28;20048;-52
2022/09/01 10:00:27;;;;;;;5.03;1.67;;;20.60;99.90;;;;;;5098376;28;20075;-53
2022/09/01 10:02:57;;;;;;;3.63;1.33;;;20.70;99.90;;;;;;5099448;28;20051;-52
2022/09/01 10:05:28;;;;;;;4.63;1.50;;;20.80;99.90;;;;;;5098854;28;20081;-53
2022/09/01 10:07:55;;;;;;;3.95;1.40;;;20.70;99.90;;;;;;5099792;28;20048;-53
2022/09/01 10:10:39;;;;;;;5.07;1.60;;;20.80;99.90;;;;;;5099186;28;20690;-52
2022/09/01 10:13:09;;;;;;;6.88;1.80;;;20.90;99.90;;;;;;5098895;28;20048;-54
2022/09/01 10:15:36;;;;;;;4.18;1.50;;;20.80;99.90;;;;;;5099213;28;20538;-52
2022/09/01 10:18:30;;;;;;;3.10;1.20;;;21.00;99.90;;;;;;5082839;28;20052;-53
2022/09/01 10:21:05;;;;;;;4.05;1.30;;;21.00;99.90;;;;;;5077336;28;20061;-52
2022/09/01 10:23:33;;;;;;;4.07;1.50;;;21.10;99.90;;;;;;5084302;28;20500;-53
2022/09/01 10:26:12;;;;;;;3.67;1.02;;;21.20;99.90;;;;;;5088254;28;20050;-53
2022/09/01 10:28:51;;;;;;;2.63;1.02;;;21.50;99.90;;;;;;5088141;28;20075;-53
2022/09/01 10:31:19;;;;;;;1.73;0.80;;;21.30;99.90;;;;;;5085355;28;20062;-53
2022/09/01 10:33:45;;;;;;;3.42;1.13;;;21.20;99.60;;;;;;5088017;28;20055;-52
2022/09/01 10:36:13;;;;;;;2.72;1.02;;;21.40;98.50;;;;;;5081535;28;20157;-53
2022/09/01 10:38:40;;;;;;;2.63;0.90;;;21.50;99.70;;;;;;5088876;28;20462;-54
2022/09/01 10:41:06;;;;;;;6.40;1.25;;;21.30;99.00;;;;;;5098866;28;21999;-51
2022/09/01 10:43:49;;;;;;;5.70;1.15;;;21.50;98.70;;;;;;5098223;28;20048;-53
2022/09/01 10:46:20;;;;;;;4.25;0.98;;;21.50;97.50;;;;;;5098925;28;20052;-53
2022/09/01 10:48:51;;;;;;;3.42;0.95;;;21.50;97.00;;;;;;5098428;28;20498;-53
2022/09/01 10:51:17;;;;;;;3.45;1.00;;;21.40;96.00;;;;;;5098687;28;20449;-52
2022/09/01 10:53:54;;;;;;;2.88;0.90;;;21.30;96.80;;;;;;5098899;28;20052;-52
2022/09/01 10:56:49;;;;;;;2.90;1.10;;;21.40;96.50;;;;;;5097386;28;20083;-54
2022/09/01 10:59:24;;;;;;;2.72;0.77;;;21.50;97.10;;;;;;5098718;28;20051;-54
2022/09/01 11:01:49;;;;;;;2.10;0.85;;;21.40;96.40;;;;;;5098447;28;20036;-54
2022/09/01 11:04:31;;;;;;;2.60;0.80;;;21.40;97.60;;;;;;5098143;28;20047;-54
2022/09/01 11:07:01;;;;;;;3.05;0.90;;;21.30;94.60;;;;;;5096842;28;20191;-52
2022/09/01 11:09:31;;;;;;;1.95;0.70;;;21.30;96.30;;;;;;5097252;28;20043;-54
2022/09/01 11:12:36;;;;;;;2.42;0.80;;;21.60;96.70;;;;;;5098103;28;20040;-52
2022/09/01 11:15:03;;;;;;;1.95;0.80;;;21.80;95.40;;;;;;5098372;28;20028;-53
2022/09/01 11:17:38;;;;;;;2.80;0.90;;;22.10;96.00;;;;;;5085993;28;20046;-52
2022/09/01 11:20:11;;;;;;;3.00;0.90;;;22.00;95.70;;;;;;5077067;28;20036;-53
2022/09/01 11:22:39;;;;;;;2.83;0.82;;;22.20;95.70;;;;;;5077025;28;20036;-53
2022/09/01 11:25:26;;;;;;;3.85;1.08;;;22.50;95.50;;;;;;5078120;28;20051;-53
2022/09/01 11:27:52;;;;;;;3.45;1.00;;;22.50;94.90;;;;;;5077610;28;20048;-52
2022/09/01 11:30:49;;;;;;;2.83;0.70;;;22.30;95.40;;;;;;5075904;28;20565;-52
2022/09/01 11:33:14;;;;;;;3.50;0.88;;;22.50;94.50;;;;;;5076656;28;20056;-53
2022/09/01 11:35:44;;;;;;;2.78;0.85;;;22.70;94.70;;;;;;5077060;28;20063;-53
2022/09/01 11:38:12;;;;;;;3.17;1.45;;;22.80;94.30;;;;;;5082924;28;20036;-52
2022/09/01 11:40:38;;;;;;;1.63;0.70;;;22.90;93.50;;;;;;5088059;28;20044;-53
2022/09/01 11:43:08;;;;;;;1.88;0.70;;;22.60;93.00;;;;;;5085472;28;20044;-53
2022/09/01 11:45:59;;;;;;;4.38;0.75;;;22.40;93.30;;;;;;5083828;28;20055;-52
2022/09/01 11:48:25;;;;;;;3.90;0.88;;;22.40;93.40;;;;;;5086115;28;20071;-53
2022/09/01 11:51:00;;;;;;;4.25;0.80;;;22.20;93.60;;;;;;5086270;28;20656;-52
2022/09/01 11:53:27;;;;;;;2.65;0.82;;;22.10;94.20;;;;;;5079744;28;20496;-52
2022/09/01 11:55:56;;;;;;;3.67;1.00;;;21.90;93.30;;;;;;5085182;28;20048;-52
2022/09/01 11:58:31;;;;;;;2.80;1.00;;;21.80;93.60;;;;;;5087472;28;20036;-53
2022/09/01 12:01:11;;;;;;;3.95;0.90;;;21.70;94.00;;;;;;5085797;28;20047;-51
2022/09/01 12:03:37;;;;;;;3.15;0.73;;;21.80;94.60;;;;;;5076842;28;20072;-52
2022/09/01 12:06:07;;;;;;;2.05;0.80;;;22.10;94.00;;;;;;5077303;28;20056;-52
2022/09/01 12:08:35;;;;;;;2.30;0.70;;;22.30;93.50;;;;;;5076880;28;20045;-53
2022/09/01 12:11:05;;;;;;;3.78;1.00;;;22.20;94.00;;;;;;5077454;28;20052;-52
2022/09/01 12:13:31;;;;;;;2.85;0.90;;;22.30;93.80;;;;;;5076511;28;20043;-51
2022/09/01 12:16:00;;;;;;;2.78;0.80;;;22.50;94.00;;;;;;5077548;28;20052;-52
2022/09/01 12:18:27;;;;;;;3.75;0.95;;;22.50;93.70;;;;;;5095413;28;20044;-49
2022/09/01 12:20:56;;;;;;;3.33;0.95;;;22.60;93.90;;;;;;5096916;28;20437;-53
2022/09/01 12:23:27;;;;;;;2.45;0.80;;;22.70;92.90;;;;;;5096931;28;20044;-50
2022/09/01 12:25:56;;;;;;;2.60;0.80;;;22.70;93.10;;;;;;5099560;28;20055;-52
2022/09/01 12:28:23;;;;;;;4.22;0.88;;;22.60;93.20;;;;;;5101247;28;20063;-53
2022/09/01 12:30:50;;;;;;;2.42;0.80;;;22.60;93.50;;;;;;5100577;28;20051;-53
2022/09/01 12:33:18;;;;;;;3.58;0.85;;;22.30;93.30;;;;;;5101872;28;20051;-52
2022/09/01 12:35:45;;;;;;;1.95;0.80;;;22.20;93.30;;;;;;5099370;28;20065;-52
2022/09/01 12:38:21;;;;;;;4.32;0.93;;;22.30;93.40;;;;;;5101239;28;20078;-52
2022/09/01 12:40:49;;;;;;;5.25;1.00;;;22.40;93.10;;;;;;5101017;28;20144;-50
2022/09/01 12:43:27;;;;;;;2.97;0.93;;;22.30;93.40;;;;;;5100598;28;20073;-53
2022/09/01 12:45:53;;;;;;;4.15;0.80;;;22.00;93.10;;;;;;5101259;28;20052;-52
2022/09/01 12:48:29;;;;;;;2.72;1.00;;;22.00;93.60;;;;;;5100388;28;20109;-52
2022/09/01 12:50:57;;;;;;;3.47;1.00;;;22.20;93.20;;;;;;5101066;28;20056;-52
2022/09/01 12:53:27;;;;;;;4.13;1.02;;;22.40;93.10;;;;;;5100950;28;20072;-52
2022/09/01 12:55:58;;;;;;;2.53;0.77;;;22.60;93.40;;;;;;5100185;28;20052;-51
2022/09/01 12:58:28;;;;;;;3.08;0.98;;;22.40;93.10;;;;;;5100911;28;20044;-53
2022/09/01 13:00:57;;;;;;;3.13;0.98;;;22.50;93.20;;;;;;5099946;28;20027;-52
2022/09/01 13:03:23;;;;;;;2.88;0.90;;;22.50;93.70;;;;;;5101144;28;20047;-51
2022/09/01 13:05:53;;;;;;;4.35;0.90;;;22.40;93.80;;;;;;5100337;28;20574;-51
2022/09/01 13:08:42;;;;;;;3.72;1.10;;;22.50;93.30;;;;;;5099570;28;20083;-51
2022/09/01 13:11:12;;;;;;;3.80;0.80;;;22.60;93.10;;;;;;5098440;28;20048;-54